sensor_id;sensor_type;location;lat;lon;timestamp;pressure;altitude;pressure_sealevel;temperature;humidity
10518;BME280;5307;42.548;22.968;2023-05-24T00:00:19;93707.53;;;10.90;100.00
10518;BME280;5307;42.548;22.968;2023-05-24T00:02:46;93696.00;;;10.95;100.00
10518;BME280;5307;42.548;22.968;2023-05-24T00:05:13;93692.94;;;10.75;100.00
10518;BME280;5307;42.548;22.968;2023-05-24T00:07:41;93687.66;;;10.89;100.00
10518;BME280;5307;42.548;22.968;2023-05-24T00:10:10;93689.91;;;10.82;100.00
10518;BME280;5307;42.548;22.968;2023-05-24T00:12:37;93698.25;;;10.78;100.00
10518;BME280;5307;42.548;22.968;2023-05-24T00:15:05;93703.28;;;10.89;100.00
10518;BME280;5307;42.548;22.968;2023-05-24T00:17:32;93689.31;;;10.87;100.00
10518;BME280;5307;42.548;22.968;2023-05-24T00:20:07;93692.63;;;10.82;100.00
10518;BME280;5307;42.548;22.968;2023-05-24T00:22:35;93691.44;;;10.74;100.00
10518;BME280;5307;42.548;22.968;2023-05-24T00:25:02;93694.50;;;10.85;100.00
10518;BME280;5307;42.548;22.968;2023-05-24T00:27:30;93683.06;;;10.77;100.00
10518;BME280;5307;42.548;22.968;2023-05-24T00:29:57;93690.75;;;10.51;100.00
10518;BME280;5307;42.548;22.968;2023-05-24T00:32:24;93682.00;;;10.65;100.00
10518;BME280;5307;42.548;22.968;2023-05-24T00:34:51;93679.88;;;10.69;100.00
10518;BME280;5307;42.548;22.968;2023-05-24T00:37:17;93676.25;;;10.23;100.00
10518;BME280;5307;42.548;22.968;2023-05-24T00:39:44;93674.81;;;10.50;100.00
10518;BME280;5307;42.548;22.968;2023-05-24T00:42:11;93668.47;;;10.62;100.00
10518;BME280;5307;42.548;22.968;2023-05-24T00:44:39;93674.41;;;10.60;100.00
10518;BME280;5307;42.548;22.968;2023-05-24T00:47:06;93676.06;;;10.67;100.00
10518;BME280;5307;42.548;22.968;2023-05-24T00:49:33;93679.38;;;10.53;100.00
10518;BME280;5307;42.548;22.968;2023-05-24T00:52:00;93672.69;;;10.54;100.00
10518;BME280;5307;42.548;22.968;2023-05-24T00:54:27;93680.31;;;10.59;100.00
10518;BME280;5307;42.548;22.968;2023-05-24T00:56:55;93677.59;;;10.59;100.00
10518;BME280;5307;42.548;22.968;2023-05-24T00:59:22;93676.19;;;10.45;100.00
10518;BME280;5307;42.548;22.968;2023-05-24T01:01:51;93679.25;;;10.65;100.00
10518;BME280;5307;42.548;22.968;2023-05-24T01:04:19;93671.13;;;10.34;100.00
10518;BME280;5307;42.548;22.968;2023-05-24T01:07:01;93683.50;;;10.57;100.00
10518;BME280;5307;42.548;22.968;2023-05-24T01:09:35;93681.50;;;10.49;100.00
10518;BME280;5307;42.548;22.968;2023-05-24T01:12:14;93684.88;;;10.22;100.00
10518;BME280;5307;42.548;22.968;2023-05-24T01:14:56;93692.47;;;10.27;100.00
10518;BME280;5307;42.548;22.968;2023-05-24T01:17:29;93694.06;;;10.46;100.00
10518;BME280;5307;42.548;22.968;2023-05-24T01:19:59;93691.59;;;10.39;100.00
10518;BME280;5307;42.548;22.968;2023-05-24T01:23:04;93700.34;;;10.25;100.00
10518;BME280;5307;42.548;22.968;2023-05-24T01:26:02;93692.22;;;10.34;100.00
10518;BME280;5307;42.548;22.968;2023-05-24T01:28:33;93702.06;;;10.31;100.00
10518;BME280;5307;42.548;22.968;2023-05-24T01:31:01;93702.97;;;10.37;100.00
10518;BME280;5307;42.548;22.968;2023-05-24T01:33:28;93699.47;;;10.28;100.00
10518;BME280;5307;42.548;22.968;2023-05-24T01:35:55;93705.50;;;10.23;100.00
10518;BME280;5307;42.548;22.968;2023-05-24T01:38:21;93697.81;;;10.30;100.00
10518;BME280;5307;42.548;22.968;2023-05-24T01:40:51;93700.72;;;10.36;100.00
10518;BME280;5307;42.548;22.968;2023-05-24T01:43:30;93695.53;;;10.29;100.00
10518;BME280;5307;42.548;22.968;2023-05-24T01:46:07;93697.25;;;10.14;100.00
10518;BME280;5307;42.548;22.968;2023-05-24T01:48:46;93703.13;;;10.03;100.00
10518;BME280;5307;42.548;22.968;2023-05-24T01:51:22;93687.72;;;9.87;100.00
10518;BME280;5307;42.548;22.968;2023-05-24T01:53:49;93692.50;;;10.05;100.00
10518;BME280;5307;42.548;22.968;2023-05-24T01:56:18;93690.78;;;9.98;100.00
10518;BME280;5307;42.548;22.968;2023-05-24T01:58:46;93687.28;;;9.89;100.00
10518;BME280;5307;42.548;22.968;2023-05-24T02:01:18;93692.00;;;9.97;100.00
10518;BME280;5307;42.548;22.968;2023-05-24T02:03:45;93682.97;;;10.09;100.00
10518;BME280;5307;42.548;22.968;2023-05-24T02:06:12;93674.03;;;9.56;100.00
10518;BME280;5307;42.548;22.968;2023-05-24T02:08:39;93682.75;;;9.95;100.00
10518;BME280;5307;42.548;22.968;2023-05-24T02:11:06;93691.78;;;9.82;100.00
10518;BME280;5307;42.548;22.968;2023-05-24T02:13:33;93686.28;;;10.04;100.00
10518;BME280;5307;42.548;22.968;2023-05-24T02:15:59;93685.78;;;9.97;100.00
10518;BME280;5307;42.548;22.968;2023-05-24T02:18:28;93689.03;;;9.73;100.00
10518;BME280;5307;42.548;22.968;2023-05-24T02:20:59;93684.34;;;9.83;100.00
10518;BME280;5307;42.548;22.968;2023-05-24T02:23:26;93691.28;;;9.75;100.00
10518;BME280;5307;42.548;22.968;2023-05-24T02:25:54;93684.88;;;9.69;100.00
10518;BME280;5307;42.548;22.968;2023-05-24T02:28:21;93678.59;;;9.81;100.00
10518;BME280;5307;42.548;22.968;2023-05-24T02:30:47;93673.75;;;9.85;100.00
10518;BME280;5307;42.548;22.968;2023-05-24T02:33:14;93671.75;;;9.55;100.00
10518;BME280;5307;42.548;22.968;2023-05-24T02:35:42;93674.88;;;9.66;100.00
10518;BME280;5307;42.548;22.968;2023-05-24T02:38:09;93676.84;;;9.65;100.00
10518;BME280;5307;42.548;22.968;2023-05-24T02:40:36;93675.69;;;9.53;100.00
10518;BME280;5307;42.548;22.968;2023-05-24T02:43:02;93682.16;;;9.69;100.00
10518;BME280;5307;42.548;22.968;2023-05-24T02:45:29;93676.47;;;9.85;100.00
10518;BME280;5307;42.548;22.968;2023-05-24T02:47:56;93674.03;;;9.78;100.00
10518;BME280;5307;42.548;22.968;2023-05-24T02:50:23;93679.09;;;9.89;100.00
10518;BME280;5307;42.548;22.968;2023-05-24T02:52:51;93673.28;;;9.77;100.00
10518;BME280;5307;42.548;22.968;2023-05-24T02:55:18;93681.28;;;9.72;100.00
10518;BME280;5307;42.548;22.968;2023-05-24T02:57:45;93679.69;;;9.62;100.00
10518;BME280;5307;42.548;22.968;2023-05-24T03:00:13;93692.59;;;9.70;100.00
10518;BME280;5307;42.548;22.968;2023-05-24T03:02:40;93684.16;;;9.46;100.00
10518;BME280;5307;42.548;22.968;2023-05-24T03:05:07;93689.13;;;9.70;100.00
10518;BME280;5307;42.548;22.968;2023-05-24T03:07:34;93687.38;;;9.54;100.00
10518;BME280;5307;42.548;22.968;2023-05-24T03:10:02;93697.97;;;9.30;100.00
10518;BME280;5307;42.548;22.968;2023-05-24T03:12:29;93703.47;;;9.39;100.00
10518;BME280;5307;42.548;22.968;2023-05-24T03:14:55;93705.56;;;9.35;100.00
10518;BME280;5307;42.548;22.968;2023-05-24T03:17:22;93707.28;;;9.64;100.00
10518;BME280;5307;42.548;22.968;2023-05-24T03:19:49;93710.19;;;9.69;100.00
10518;BME280;5307;42.548;22.968;2023-05-24T03:22:16;93709.41;;;9.69;100.00
10518;BME280;5307;42.548;22.968;2023-05-24T03:24:44;93707.53;;;9.78;100.00
10518;BME280;5307;42.548;22.968;2023-05-24T03:27:13;93707.03;;;9.49;100.00
10518;BME280;5307;42.548;22.968;2023-05-24T03:29:39;93712.72;;;9.64;100.00
10518;BME280;5307;42.548;22.968;2023-05-24T03:32:06;93713.34;;;9.68;100.00
10518;BME280;5307;42.548;22.968;2023-05-24T03:34:35;93707.34;;;9.73;100.00
10518;BME280;5307;42.548;22.968;2023-05-24T03:37:02;93707.91;;;9.68;100.00
10518;BME280;5307;42.548;22.968;2023-05-24T03:39:29;93696.91;;;10.33;100.00
10518;BME280;5307;42.548;22.968;2023-05-24T03:41:55;93705.13;;;10.11;100.00
10518;BME280;5307;42.548;22.968;2023-05-24T03:44:25;93683.13;;;9.75;100.00
10518;BME280;5307;42.548;22.968;2023-05-24T03:46:51;93712.53;;;9.80;100.00
10518;BME280;5307;42.548;22.968;2023-05-24T03:49:18;93704.03;;;9.78;100.00
10518;BME280;5307;42.548;22.968;2023-05-24T03:51:45;93708.88;;;9.74;100.00
10518;BME280;5307;42.548;22.968;2023-05-24T03:54:12;93709.34;;;10.12;100.00
10518;BME280;5307;42.548;22.968;2023-05-24T03:56:39;93711.31;;;10.03;100.00
10518;BME280;5307;42.548;22.968;2023-05-24T03:59:05;93715.31;;;9.89;100.00
10518;BME280;5307;42.548;22.968;2023-05-24T04:01:34;93714.19;;;10.08;100.00
10518;BME280;5307;42.548;22.968;2023-05-24T04:04:01;93719.66;;;10.08;100.00
10518;BME280;5307;42.548;22.968;2023-05-24T04:06:28;93721.94;;;10.10;100.00
10518;BME280;5307;42.548;22.968;2023-05-24T04:08:55;93725.47;;;10.42;100.00
10518;BME280;5307;42.548;22.968;2023-05-24T04:11:23;93732.88;;;10.41;100.00
10518;BME280;5307;42.548;22.968;2023-05-24T04:13:52;93722.91;;;10.16;100.00
10518;BME280;5307;42.548;22.968;2023-05-24T04:16:20;93724.06;;;10.37;100.00
10518;BME280;5307;42.548;22.968;2023-05-24T04:18:49;93731.41;;;10.49;100.00
10518;BME280;5307;42.548;22.968;2023-05-24T04:21:16;93732.75;;;10.54;100.00
10518;BME280;5307;42.548;22.968;2023-05-24T04:23:43;93724.47;;;10.57;100.00
10518;BME280;5307;42.548;22.968;2023-05-24T04:26:10;93735.72;;;10.78;100.00
10518;BME280;5307;42.548;22.968;2023-05-24T04:28:37;93742.28;;;10.89;100.00
10518;BME280;5307;42.548;22.968;2023-05-24T04:31:04;93734.25;;;10.95;100.00
10518;BME280;5307;42.548;22.968;2023-05-24T04:33:31;93738.59;;;11.42;100.00
10518;BME280;5307;42.548;22.968;2023-05-24T04:35:59;93729.16;;;11.70;100.00
10518;BME280;5307;42.548;22.968;2023-05-24T04:38:27;93726.44;;;11.70;100.00
10518;BME280;5307;42.548;22.968;2023-05-24T04:40:56;93735.22;;;11.74;100.00
10518;BME280;5307;42.548;22.968;2023-05-24T04:43:23;93737.38;;;11.79;100.00
10518;BME280;5307;42.548;22.968;2023-05-24T04:45:51;93734.34;;;11.86;100.00
10518;BME280;5307;42.548;22.968;2023-05-24T04:48:18;93746.16;;;11.93;100.00
10518;BME280;5307;42.548;22.968;2023-05-24T04:50:45;93726.44;;;11.79;100.00
10518;BME280;5307;42.548;22.968;2023-05-24T04:53:14;93740.09;;;11.98;100.00
10518;BME280;5307;42.548;22.968;2023-05-24T04:55:41;93743.84;;;12.18;100.00
10518;BME280;5307;42.548;22.968;2023-05-24T04:58:08;93739.28;;;12.15;100.00
10518;BME280;5307;42.548;22.968;2023-05-24T05:00:34;93742.13;;;12.39;100.00
10518;BME280;5307;42.548;22.968;2023-05-24T05:03:01;93737.19;;;12.53;100.00
10518;BME280;5307;42.548;22.968;2023-05-24T05:05:28;93734.00;;;12.54;100.00
10518;BME280;5307;42.548;22.968;2023-05-24T05:07:55;93732.03;;;12.55;100.00
10518;BME280;5307;42.548;22.968;2023-05-24T05:10:23;93737.91;;;12.62;100.00
10518;BME280;5307;42.548;22.968;2023-05-24T05:12:50;93735.75;;;12.66;99.93
10518;BME280;5307;42.548;22.968;2023-05-24T05:15:19;93734.09;;;12.69;98.99
10518;BME280;5307;42.548;22.968;2023-05-24T05:17:46;93736.09;;;12.92;98.62
10518;BME280;5307;42.548;22.968;2023-05-24T05:20:13;93743.50;;;13.10;97.69
10518;BME280;5307;42.548;22.968;2023-05-24T05:22:44;93739.03;;;12.89;98.40
10518;BME280;5307;42.548;22.968;2023-05-24T05:25:11;93736.00;;;12.87;96.85
10518;BME280;5307;42.548;22.968;2023-05-24T05:27:39;93736.56;;;13.24;97.57
10518;BME280;5307;42.548;22.968;2023-05-24T05:30:07;93733.56;;;13.60;96.11
10518;BME280;5307;42.548;22.968;2023-05-24T05:32:34;93732.22;;;14.09;91.78
10518;BME280;5307;42.548;22.968;2023-05-24T05:35:01;93736.56;;;14.01;90.72
10518;BME280;5307;42.548;22.968;2023-05-24T05:37:28;93735.25;;;14.11;88.83
10518;BME280;5307;42.548;22.968;2023-05-24T05:39:56;93728.97;;;14.70;86.27
10518;BME280;5307;42.548;22.968;2023-05-24T05:42:23;93735.94;;;15.00;85.34
10518;BME280;5307;42.548;22.968;2023-05-24T05:44:51;93728.56;;;14.77;81.14
10518;BME280;5307;42.548;22.968;2023-05-24T05:47:18;93735.22;;;15.40;80.67
10518;BME280;5307;42.548;22.968;2023-05-24T05:49:45;93736.16;;;15.58;78.78
10518;BME280;5307;42.548;22.968;2023-05-24T05:52:12;93734.41;;;15.75;76.26
10518;BME280;5307;42.548;22.968;2023-05-24T05:54:38;93741.59;;;15.11;77.61
10518;BME280;5307;42.548;22.968;2023-05-24T05:57:05;93740.91;;;15.57;78.63
10518;BME280;5307;42.548;22.968;2023-05-24T05:59:35;93737.31;;;16.12;78.09
10518;BME280;5307;42.548;22.968;2023-05-24T06:02:04;93736.66;;;15.56;77.62
10518;BME280;5307;42.548;22.968;2023-05-24T06:04:31;93731.22;;;15.41;76.70
10518;BME280;5307;42.548;22.968;2023-05-24T06:06:58;93729.75;;;16.33;75.01
10518;BME280;5307;42.548;22.968;2023-05-24T06:09:25;93743.31;;;15.90;75.36
10518;BME280;5307;42.548;22.968;2023-05-24T06:11:52;93736.44;;;16.00;74.61
10518;BME280;5307;42.548;22.968;2023-05-24T06:14:19;93737.69;;;16.83;74.24
10518;BME280;5307;42.548;22.968;2023-05-24T06:16:46;93730.31;;;17.54;70.61
10518;BME280;5307;42.548;22.968;2023-05-24T06:19:14;93721.50;;;17.02;71.72
10518;BME280;5307;42.548;22.968;2023-05-24T06:21:42;93714.13;;;17.25;72.02
10518;BME280;5307;42.548;22.968;2023-05-24T06:24:12;93730.44;;;17.23;71.08
10518;BME280;5307;42.548;22.968;2023-05-24T06:26:39;93725.81;;;18.22;69.04
10518;BME280;5307;42.548;22.968;2023-05-24T06:29:06;93719.59;;;17.67;68.92
10518;BME280;5307;42.548;22.968;2023-05-24T06:31:33;93730.81;;;18.23;67.68
10518;BME280;5307;42.548;22.968;2023-05-24T06:34:00;93733.91;;;18.70;66.49
10518;BME280;5307;42.548;22.968;2023-05-24T06:36:28;93727.56;;;17.54;69.33
10518;BME280;5307;42.548;22.968;2023-05-24T06:38:58;93730.59;;;17.56;68.37
10518;BME280;5307;42.548;22.968;2023-05-24T06:41:25;93724.53;;;18.17;66.45
10518;BME280;5307;42.548;22.968;2023-05-24T06:43:52;93723.59;;;18.87;65.66
10518;BME280;5307;42.548;22.968;2023-05-24T06:46:19;93725.59;;;18.98;64.49
10518;BME280;5307;42.548;22.968;2023-05-24T06:48:46;93736.78;;;17.99;67.37
10518;BME280;5307;42.548;22.968;2023-05-24T06:51:13;93724.88;;;18.64;64.47
10518;BME280;5307;42.548;22.968;2023-05-24T06:53:41;93727.25;;;17.95;65.55
10518;BME280;5307;42.548;22.968;2023-05-24T06:56:08;93720.09;;;18.76;66.47
10518;BME280;5307;42.548;22.968;2023-05-24T06:58:35;93727.13;;;18.65;64.70
10518;BME280;5307;42.548;22.968;2023-05-24T07:01:02;93723.78;;;19.23;62.30
10518;BME280;5307;42.548;22.968;2023-05-24T07:03:29;93722.72;;;19.60;62.27
10518;BME280;5307;42.548;22.968;2023-05-24T07:05:56;93716.53;;;19.03;62.45
10518;BME280;5307;42.548;22.968;2023-05-24T07:08:23;93724.63;;;20.34;62.05
10518;BME280;5307;42.548;22.968;2023-05-24T07:10:52;93729.34;;;20.50;61.93
10518;BME280;5307;42.548;22.968;2023-05-24T07:13:20;93723.63;;;20.72;59.94
10518;BME280;5307;42.548;22.968;2023-05-24T07:15:48;93724.56;;;19.12;60.95
10518;BME280;5307;42.548;22.968;2023-05-24T07:18:15;93711.50;;;19.93;59.53
10518;BME280;5307;42.548;22.968;2023-05-24T07:20:42;93726.97;;;19.72;60.13
10518;BME280;5307;42.548;22.968;2023-05-24T07:23:08;93715.75;;;19.31;60.79
10518;BME280;5307;42.548;22.968;2023-05-24T07:25:36;93718.72;;;19.38;61.18
10518;BME280;5307;42.548;22.968;2023-05-24T07:28:04;93725.09;;;20.38;60.95
10518;BME280;5307;42.548;22.968;2023-05-24T07:30:31;93723.56;;;19.96;59.03
10518;BME280;5307;42.548;22.968;2023-05-24T07:32:58;93723.63;;;20.72;58.29
10518;BME280;5307;42.548;22.968;2023-05-24T07:35:25;93725.44;;;20.29;59.07
10518;BME280;5307;42.548;22.968;2023-05-24T07:37:53;93719.34;;;20.71;56.28
10518;BME280;5307;42.548;22.968;2023-05-24T07:40:20;93718.22;;;21.16;57.13
10518;BME280;5307;42.548;22.968;2023-05-24T07:42:47;93718.47;;;20.88;55.46
10518;BME280;5307;42.548;22.968;2023-05-24T07:45:15;93710.59;;;21.46;53.89
10518;BME280;5307;42.548;22.968;2023-05-24T07:47:42;93718.97;;;21.16;55.33
10518;BME280;5307;42.548;22.968;2023-05-24T07:50:10;93712.72;;;22.02;56.00
10518;BME280;5307;42.548;22.968;2023-05-24T07:52:37;93700.88;;;21.77;52.83
10518;BME280;5307;42.548;22.968;2023-05-24T07:55:04;93708.41;;;21.82;51.28
10518;BME280;5307;42.548;22.968;2023-05-24T07:57:31;93708.00;;;22.16;53.72
10518;BME280;5307;42.548;22.968;2023-05-24T07:59:58;93705.31;;;22.10;52.83
10518;BME280;5307;42.548;22.968;2023-05-24T08:02:32;93701.44;;;22.32;51.93
10518;BME280;5307;42.548;22.968;2023-05-24T08:04:59;93702.22;;;22.65;51.74
10518;BME280;5307;42.548;22.968;2023-05-24T08:07:26;93698.94;;;21.72;53.51
10518;BME280;5307;42.548;22.968;2023-05-24T08:09:53;93697.59;;;22.35;51.77
10518;BME280;5307;42.548;22.968;2023-05-24T08:12:19;93697.78;;;22.24;50.00
10518;BME280;5307;42.548;22.968;2023-05-24T08:14:46;93694.34;;;23.14;50.35
10518;BME280;5307;42.548;22.968;2023-05-24T08:17:13;93691.41;;;22.93;47.64
10518;BME280;5307;42.548;22.968;2023-05-24T08:19:41;93690.38;;;22.96;48.47
10518;BME280;5307;42.548;22.968;2023-05-24T08:22:08;93692.84;;;22.68;47.03
10518;BME280;5307;42.548;22.968;2023-05-24T08:24:34;93695.06;;;22.88;46.67
10518;BME280;5307;42.548;22.968;2023-05-24T08:27:01;93695.78;;;23.47;46.09
10518;BME280;5307;42.548;22.968;2023-05-24T08:29:28;93690.13;;;22.94;44.54
10518;BME280;5307;42.548;22.968;2023-05-24T08:31:55;93695.47;;;22.92;45.27
10518;BME280;5307;42.548;22.968;2023-05-24T08:34:22;93693.06;;;22.70;46.63
10518;BME280;5307;42.548;22.968;2023-05-24T08:36:50;93688.59;;;23.25;46.46
10518;BME280;5307;42.548;22.968;2023-05-24T08:39:18;93694.06;;;23.31;45.86
10518;BME280;5307;42.548;22.968;2023-05-24T08:41:45;93685.28;;;23.40;45.93
10518;BME280;5307;42.548;22.968;2023-05-24T08:44:12;93695.59;;;23.72;47.31
10518;BME280;5307;42.548;22.968;2023-05-24T08:46:39;93691.16;;;23.36;44.38
10518;BME280;5307;42.548;22.968;2023-05-24T08:49:08;93693.19;;;23.23;43.83
10518;BME280;5307;42.548;22.968;2023-05-24T08:51:38;93686.44;;;23.18;42.30
10518;BME280;5307;42.548;22.968;2023-05-24T08:54:09;93679.38;;;23.83;44.76
10518;BME280;5307;42.548;22.968;2023-05-24T08:56:38;93691.38;;;23.91;48.17
10518;BME280;5307;42.548;22.968;2023-05-24T08:59:07;93681.69;;;24.06;47.19
10518;BME280;5307;42.548;22.968;2023-05-24T09:01:37;93685.50;;;24.42;47.40
10518;BME280;5307;42.548;22.968;2023-05-24T09:04:06;93690.88;;;24.40;46.27
10518;BME280;5307;42.548;22.968;2023-05-24T09:06:34;93683.38;;;24.35;43.68
10518;BME280;5307;42.548;22.968;2023-05-24T09:09:02;93682.91;;;23.97;41.15
10518;BME280;5307;42.548;22.968;2023-05-24T09:11:33;93673.91;;;23.38;43.07
10518;BME280;5307;42.548;22.968;2023-05-24T09:14:01;93681.63;;;23.45;40.74
10518;BME280;5307;42.548;22.968;2023-05-24T09:16:28;93677.72;;;24.48;41.62
10518;BME280;5307;42.548;22.968;2023-05-24T09:18:55;93680.47;;;23.93;37.20
10518;BME280;5307;42.548;22.968;2023-05-24T09:21:22;93676.84;;;24.19;37.87
10518;BME280;5307;42.548;22.968;2023-05-24T09:23:50;93677.88;;;24.43;38.62
10518;BME280;5307;42.548;22.968;2023-05-24T09:26:16;93675.72;;;24.70;37.73
10518;BME280;5307;42.548;22.968;2023-05-24T09:28:46;93676.97;;;25.03;36.04
10518;BME280;5307;42.548;22.968;2023-05-24T09:31:13;93676.94;;;23.80;38.01
10518;BME280;5307;42.548;22.968;2023-05-24T09:33:41;93684.06;;;23.09;38.43
10518;BME280;5307;42.548;22.968;2023-05-24T09:36:08;93671.88;;;23.25;37.79
10518;BME280;5307;42.548;22.968;2023-05-24T09:38:35;93677.75;;;23.22;37.27
10518;BME280;5307;42.548;22.968;2023-05-24T09:41:03;93673.03;;;23.17;39.07
10518;BME280;5307;42.548;22.968;2023-05-24T09:43:31;93666.38;;;23.99;41.33
10518;BME280;5307;42.548;22.968;2023-05-24T09:46:02;93676.38;;;24.63;41.44
10518;BME280;5307;42.548;22.968;2023-05-24T09:48:30;93666.94;;;24.32;37.50
10518;BME280;5307;42.548;22.968;2023-05-24T09:51:01;93658.56;;;24.66;38.86
10518;BME280;5307;42.548;22.968;2023-05-24T09:53:28;93661.94;;;24.72;36.71
10518;BME280;5307;42.548;22.968;2023-05-24T09:55:56;93662.97;;;24.61;35.42
10518;BME280;5307;42.548;22.968;2023-05-24T09:58:28;93651.31;;;24.15;36.24
10518;BME280;5307;42.548;22.968;2023-05-24T10:01:04;93662.84;;;24.87;36.19
10518;BME280;5307;42.548;22.968;2023-05-24T10:03:31;93660.09;;;23.59;36.52
10518;BME280;5307;42.548;22.968;2023-05-24T10:05:59;93664.03;;;23.90;35.43
10518;BME280;5307;42.548;22.968;2023-05-24T10:08:29;93660.72;;;23.52;37.75
10518;BME280;5307;42.548;22.968;2023-05-24T10:10:57;93661.56;;;23.33;37.15
10518;BME280;5307;42.548;22.968;2023-05-24T10:13:27;93653.16;;;24.13;37.86
10518;BME280;5307;42.548;22.968;2023-05-24T10:15:54;93657.19;;;24.59;37.43
10518;BME280;5307;42.548;22.968;2023-05-24T10:18:22;93661.66;;;24.62;38.82
10518;BME280;5307;42.548;22.968;2023-05-24T10:20:49;93657.53;;;24.76;40.38
10518;BME280;5307;42.548;22.968;2023-05-24T10:23:19;93663.41;;;24.31;37.35
10518;BME280;5307;42.548;22.968;2023-05-24T10:25:49;93664.16;;;24.66;36.97
10518;BME280;5307;42.548;22.968;2023-05-24T10:28:19;93657.53;;;24.55;35.64
10518;BME280;5307;42.548;22.968;2023-05-24T10:30:55;93654.50;;;24.19;36.31
10518;BME280;5307;42.548;22.968;2023-05-24T10:33:27;93651.06;;;24.81;37.88
10518;BME280;5307;42.548;22.968;2023-05-24T10:35:55;93651.69;;;24.67;34.63
10518;BME280;5307;42.548;22.968;2023-05-24T10:38:22;93647.16;;;24.84;37.13
10518;BME280;5307;42.548;22.968;2023-05-24T10:40:50;93648.94;;;25.16;37.76
10518;BME280;5307;42.548;22.968;2023-05-24T10:43:16;93641.31;;;24.96;37.10
10518;BME280;5307;42.548;22.968;2023-05-24T10:45:48;93643.81;;;24.86;34.60
10518;BME280;5307;42.548;22.968;2023-05-24T10:48:40;93634.56;;;24.70;37.05
10518;BME280;5307;42.548;22.968;2023-05-24T10:51:28;93636.97;;;25.08;36.38
10518;BME280;5307;42.548;22.968;2023-05-24T10:53:57;93625.91;;;25.02;36.55
10518;BME280;5307;42.548;22.968;2023-05-24T10:56:26;93631.69;;;25.04;35.80
10518;BME280;5307;42.548;22.968;2023-05-24T10:58:59;93621.94;;;24.98;36.43
10518;BME280;5307;42.548;22.968;2023-05-24T11:01:27;93614.00;;;25.30;35.24
10518;BME280;5307;42.548;22.968;2023-05-24T11:04:10;93616.19;;;25.24;36.37
10518;BME280;5307;42.548;22.968;2023-05-24T11:06:47;93615.91;;;25.07;37.61
10518;BME280;5307;42.548;22.968;2023-05-24T11:09:15;93613.75;;;25.00;36.64
10518;BME280;5307;42.548;22.968;2023-05-24T11:11:45;93622.03;;;24.84;34.54
10518;BME280;5307;42.548;22.968;2023-05-24T11:14:13;93612.75;;;24.90;36.15
10518;BME280;5307;42.548;22.968;2023-05-24T11:16:44;93606.41;;;25.10;35.48
10518;BME280;5307;42.548;22.968;2023-05-24T11:19:16;93601.84;;;25.20;36.98
10518;BME280;5307;42.548;22.968;2023-05-24T11:21:44;93601.78;;;24.92;35.04
10518;BME280;5307;42.548;22.968;2023-05-24T11:24:11;93594.53;;;25.17;35.83
10518;BME280;5307;42.548;22.968;2023-05-24T11:26:38;93600.81;;;25.10;34.69
10518;BME280;5307;42.548;22.968;2023-05-24T11:29:06;93597.25;;;24.81;34.65
10518;BME280;5307;42.548;22.968;2023-05-24T11:31:33;93597.66;;;24.64;33.04
10518;BME280;5307;42.548;22.968;2023-05-24T11:34:04;93592.56;;;24.55;36.85
10518;BME280;5307;42.548;22.968;2023-05-24T11:36:32;93600.66;;;24.45;34.03
10518;BME280;5307;42.548;22.968;2023-05-24T11:39:00;93603.19;;;24.36;34.93
10518;BME280;5307;42.548;22.968;2023-05-24T11:41:34;93591.50;;;23.90;33.67
10518;BME280;5307;42.548;22.968;2023-05-24T11:44:02;93596.28;;;24.03;34.39
10518;BME280;5307;42.548;22.968;2023-05-24T11:46:29;93596.59;;;24.12;35.00
10518;BME280;5307;42.548;22.968;2023-05-24T11:48:57;93595.59;;;23.89;34.41
10518;BME280;5307;42.548;22.968;2023-05-24T11:51:25;93603.06;;;24.07;34.26
10518;BME280;5307;42.548;22.968;2023-05-24T11:53:54;93596.38;;;23.63;33.39
10518;BME280;5307;42.548;22.968;2023-05-24T11:56:21;93586.47;;;23.88;34.83
10518;BME280;5307;42.548;22.968;2023-05-24T11:58:49;93584.97;;;23.87;34.56
10518;BME280;5307;42.548;22.968;2023-05-24T12:01:23;93579.91;;;24.20;35.20
10518;BME280;5307;42.548;22.968;2023-05-24T12:03:50;93583.22;;;24.52;34.83
10518;BME280;5307;42.548;22.968;2023-05-24T12:06:18;93581.19;;;23.98;32.94
10518;BME280;5307;42.548;22.968;2023-05-24T12:08:44;93572.28;;;24.20;35.42
10518;BME280;5307;42.548;22.968;2023-05-24T12:11:13;93567.91;;;24.46;34.40
10518;BME280;5307;42.548;22.968;2023-05-24T12:13:40;93570.94;;;24.35;33.60
10518;BME280;5307;42.548;22.968;2023-05-24T12:16:10;93569.81;;;24.51;36.52
10518;BME280;5307;42.548;22.968;2023-05-24T12:18:37;93565.91;;;24.33;35.09
10518;BME280;5307;42.548;22.968;2023-05-24T12:21:07;93558.88;;;23.98;34.69
10518;BME280;5307;42.548;22.968;2023-05-24T12:23:34;93565.28;;;24.27;35.28
10518;BME280;5307;42.548;22.968;2023-05-24T12:26:03;93560.25;;;24.25;35.13
10518;BME280;5307;42.548;22.968;2023-05-24T12:28:38;93554.66;;;24.25;36.06
10518;BME280;5307;42.548;22.968;2023-05-24T12:31:07;93549.09;;;24.25;36.87
10518;BME280;5307;42.548;22.968;2023-05-24T12:33:34;93548.41;;;24.12;36.35
10518;BME280;5307;42.548;22.968;2023-05-24T12:36:01;93559.28;;;24.02;35.19
10518;BME280;5307;42.548;22.968;2023-05-24T12:38:30;93540.28;;;24.01;36.36
10518;BME280;5307;42.548;22.968;2023-05-24T12:40:59;93553.91;;;24.04;34.00
10518;BME280;5307;42.548;22.968;2023-05-24T12:43:26;93542.69;;;24.17;37.36
10518;BME280;5307;42.548;22.968;2023-05-24T12:45:54;93541.16;;;24.30;36.05
10518;BME280;5307;42.548;22.968;2023-05-24T12:48:28;93541.19;;;24.58;36.32
10518;BME280;5307;42.548;22.968;2023-05-24T12:50:55;93548.94;;;24.10;35.59
10518;BME280;5307;42.548;22.968;2023-05-24T12:53:22;93557.94;;;24.16;35.81
10518;BME280;5307;42.548;22.968;2023-05-24T12:55:50;93550.69;;;24.21;36.02
10518;BME280;5307;42.548;22.968;2023-05-24T12:58:20;93551.50;;;24.42;38.24
10518;BME280;5307;42.548;22.968;2023-05-24T13:00:47;93545.53;;;24.04;35.39
10518;BME280;5307;42.548;22.968;2023-05-24T13:03:16;93541.44;;;24.05;35.73